createdAt,value
2022-11-24T00:01:43.573Z,58.25
2022-11-24T00:06:45.402Z,56.98
2022-11-24T00:11:47.177Z,56.93
2022-11-24T00:16:50.319Z,56.97
2022-11-24T00:21:52.156Z,57.85
2022-11-24T00:26:53.924Z,58.17
2022-11-24T00:31:57.102Z,56.78
2022-11-24T00:36:58.853Z,56.88
2022-11-24T00:42:00.682Z,55.88
2022-11-24T00:47:03.942Z,56.56
2022-11-24T00:52:05.850Z,55.71
2022-11-24T00:57:07.735Z,56.45
2022-11-24T01:02:10.903Z,59.01
2022-11-24T01:07:12.707Z,59.25
2022-11-24T01:12:14.510Z,59.09
2022-11-24T01:17:17.639Z,58.70
2022-11-24T01:22:19.433Z,56.99
2022-11-24T01:27:21.324Z,56.69
2022-11-24T01:32:24.581Z,57.58
2022-11-24T01:37:26.718Z,57.74
2022-11-24T01:42:37.551Z,58.06
2022-11-24T01:47:43.524Z,58.97
2022-11-24T01:52:46.467Z,58.89
2022-11-24T01:57:49.846Z,58.93
2022-11-24T02:02:53.028Z,58.77
2022-11-24T02:07:57.141Z,58.38
2022-11-24T02:13:00.021Z,59.08
2022-11-24T02:18:03.335Z,58.79
2022-11-24T02:23:08.173Z,59.14
2022-11-24T02:28:13.531Z,59.17
2022-11-24T02:33:15.322Z,59.97
2022-11-24T02:38:17.126Z,59.57
2022-11-24T02:43:21.107Z,58.71
2022-11-24T02:48:22.889Z,57.28
2022-11-24T02:53:24.912Z,57.60
2022-11-24T02:58:27.995Z,57.85
2022-11-24T03:03:29.822Z,58.39
2022-11-24T03:08:31.590Z,58.64
2022-11-24T03:13:34.654Z,60.47
2022-11-24T03:18:36.496Z,60.55
2022-11-24T03:23:38.253Z,59.70
2022-11-24T03:28:41.442Z,58.16
2022-11-24T03:33:43.197Z,58.31
2022-11-24T03:38:44.997Z,58.78
2022-11-24T03:43:48.154Z,61.67
2022-11-24T03:48:50.023Z,61.43
2022-11-24T03:53:51.805Z,59.24
2022-11-24T03:58:54.897Z,58.44
2022-11-24T04:03:56.695Z,59.57
2022-11-24T04:08:59.981Z,63.14
2022-11-24T04:14:03.095Z,63.82
2022-11-24T04:19:05.268Z,63.76
2022-11-24T04:24:07.152Z,63.95
2022-11-24T04:29:11.051Z,63.42
2022-11-24T04:34:12.803Z,63.46
2022-11-24T04:39:25.421Z,63.88
2022-11-24T04:44:29.853Z,64.37
2022-11-24T04:49:31.672Z,64.46
2022-11-24T04:54:33.758Z,65.25
2022-11-24T04:59:37.077Z,65.34
2022-11-24T05:04:39.006Z,65.14
2022-11-24T05:10:00.823Z,66.69
2022-11-24T05:15:04.995Z,67.04
2022-11-24T05:20:07.587Z,67.05
2022-11-24T05:25:09.773Z,67.80
2022-11-24T05:30:13.815Z,66.64
2022-11-24T05:35:15.957Z,65.72
2022-11-24T05:40:17.806Z,65.44
2022-11-24T05:45:21.321Z,65.20
2022-11-24T05:50:23.130Z,65.15
2022-11-24T05:55:25.217Z,66.12
2022-11-24T06:00:28.798Z,65.72
2022-11-24T06:05:30.780Z,65.38
2022-11-24T06:10:32.534Z,65.40
2022-11-24T06:15:37.551Z,65.32
2022-11-24T06:20:39.281Z,65.58
2022-11-24T06:25:40.971Z,65.21
2022-11-24T06:30:44.055Z,65.14
2022-11-24T06:35:45.765Z,65.37
2022-11-24T06:40:47.536Z,64.75
2022-11-24T06:45:52.714Z,64.98
2022-11-24T06:50:58.178Z,64.57
2022-11-24T06:56:00.033Z,63.74
2022-11-24T07:01:03.235Z,64.30
2022-11-24T07:06:05.259Z,62.97
2022-11-24T07:11:07.347Z,64.05
2022-11-24T07:16:15.251Z,63.05
2022-11-24T07:21:17.402Z,63.10
2022-11-24T07:26:19.388Z,63.00
2022-11-24T07:31:24.883Z,62.15
2022-11-24T07:36:26.780Z,61.37
2022-11-24T07:41:28.577Z,60.67
2022-11-24T07:46:31.715Z,61.25
2022-11-24T07:51:33.546Z,61.46
2022-11-24T07:56:35.344Z,60.59
2022-11-24T08:01:38.675Z,59.82
2022-11-24T08:06:44.643Z,59.81
2022-11-24T08:11:48.984Z,59.67
2022-11-24T08:16:52.161Z,58.55
2022-11-24T08:21:53.937Z,58.39
2022-11-24T08:26:55.729Z,59.73
2022-11-24T08:31:58.925Z,59.21
2022-11-24T08:37:00.824Z,58.91
2022-11-24T08:42:02.849Z,57.04
2022-11-24T08:47:05.982Z,59.72
2022-11-24T08:52:07.732Z,59.25
2022-11-24T08:57:09.587Z,59.15
2022-11-24T09:02:12.889Z,59.26
2022-11-24T09:07:14.729Z,59.92
2022-11-24T09:12:16.695Z,60.67
2022-11-24T09:17:19.781Z,59.15
2022-11-24T09:22:21.593Z,60.61
2022-11-24T09:27:23.309Z,59.18
2022-11-24T09:32:26.374Z,59.20
2022-11-24T09:37:32.494Z,58.15
2022-11-24T09:42:37.564Z,59.40
2022-11-24T09:47:46.778Z,58.46
2022-11-24T09:52:50.157Z,59.80
2022-11-24T09:57:54.784Z,60.63
2022-11-24T10:02:57.864Z,60.13
2022-11-24T10:08:06.292Z,59.64
2022-11-24T10:13:15.645Z,59.52
2022-11-24T10:18:33.809Z,60.09
2022-11-24T10:23:43.628Z,59.77
2022-11-24T10:28:48.940Z,59.12
2022-11-24T10:33:52.281Z,58.66
2022-11-24T10:38:57.514Z,59.67
2022-11-24T10:43:59.339Z,58.96
2022-11-24T10:49:04.400Z,58.67
2022-11-24T10:54:09.548Z,57.35
2022-11-24T10:59:21.346Z,55.41
2022-11-24T11:04:25.964Z,53.95
2022-11-24T11:09:27.754Z,53.48
2022-11-24T11:14:30.979Z,51.77
2022-11-24T11:19:54.342Z,51.49
2022-11-24T11:25:16.496Z,52.56
2022-11-24T11:35:46.674Z,54.29
2022-11-24T11:40:49.154Z,53.32
2022-11-24T11:45:57.597Z,53.42
2022-11-24T11:56:25.013Z,53.42
2022-11-24T12:01:35.298Z,53.13
2022-11-24T12:06:54.417Z,52.04
2022-11-24T12:12:04.686Z,51.44
2022-11-24T12:17:07.955Z,52.17
2022-11-24T12:22:14.893Z,53.27
2022-11-24T12:27:23.370Z,53.33
2022-11-24T12:32:34.423Z,52.63
2022-11-24T12:37:48.568Z,51.78
2022-11-24T12:42:52.674Z,52.42
2022-11-24T12:48:11.682Z,51.66
2022-11-24T12:53:16.154Z,51.80
2022-11-24T12:58:20.440Z,51.82
2022-11-24T13:03:30.207Z,52.35
2022-11-24T13:08:33.501Z,51.81
2022-11-24T13:14:01.823Z,52.53
2022-11-24T13:19:09.090Z,52.49
2022-11-24T13:24:21.705Z,53.67
2022-11-24T13:29:31.006Z,57.06
2022-11-24T13:34:55.128Z,55.80
2022-11-24T13:39:59.188Z,53.31
2022-11-24T13:45:01.692Z,52.53
2022-11-24T13:50:04.907Z,54.16
2022-11-24T13:55:38.670Z,54.89
2022-11-24T14:01:07.331Z,56.60
2022-11-24T14:06:17.254Z,56.42
2022-11-24T14:11:20.928Z,56.80
2022-11-24T14:16:23.161Z,57.11
2022-11-24T14:21:27.166Z,57.60
2022-11-24T14:26:32.964Z,59.00
2022-11-24T14:31:34.803Z,59.51
2022-11-24T14:36:36.611Z,59.82
2022-11-24T14:41:39.997Z,59.87
2022-11-24T14:46:41.936Z,60.74
2022-11-24T14:51:44.564Z,61.60
2022-11-24T14:56:58.280Z,62.25
2022-11-24T15:02:00.381Z,61.99
2022-11-24T15:07:05.009Z,60.53
2022-11-24T15:12:09.506Z,59.67
2022-11-24T15:17:16.841Z,59.75
2022-11-24T15:22:43.698Z,56.29
2022-11-24T15:27:46.857Z,58.78
2022-11-24T15:32:50.138Z,58.39
2022-11-24T15:37:52.087Z,57.45
2022-11-24T15:42:56.163Z,58.67
2022-11-24T15:47:57.956Z,59.08
2022-11-24T15:52:59.699Z,59.89
2022-11-24T15:58:02.854Z,60.46
2022-11-24T16:03:23.940Z,61.47
2022-11-24T16:08:26.468Z,63.26
2022-11-24T16:13:29.637Z,64.00
2022-11-24T16:18:35.529Z,63.97
2022-11-24T16:23:37.432Z,63.83
2022-11-24T16:28:40.748Z,63.52
2022-11-24T16:33:44.703Z,63.48
2022-11-24T16:38:46.703Z,63.93
2022-11-24T16:43:49.971Z,64.27
2022-11-24T16:48:53.150Z,65.46
2022-11-24T16:53:57.208Z,65.82
2022-11-24T16:59:00.351Z,66.47
2022-11-24T17:04:02.091Z,66.30
2022-11-24T17:09:04.021Z,65.85
2022-11-24T17:14:07.143Z,66.03
2022-11-24T17:19:09.416Z,66.33
2022-11-24T17:24:15.452Z,65.93
2022-11-24T17:29:19.013Z,65.91
2022-11-24T17:34:21.005Z,66.53
2022-11-24T17:39:25.179Z,67.21
2022-11-24T17:44:28.353Z,68.49
2022-11-24T17:49:30.142Z,67.00
2022-11-24T17:54:45.818Z,67.71
2022-11-24T17:59:51.048Z,66.88
2022-11-24T18:04:52.865Z,66.56
2022-11-24T18:09:54.675Z,66.26
2022-11-24T18:14:57.892Z,65.99
2022-11-24T18:19:59.856Z,65.20
2022-11-24T18:25:01.958Z,65.19
2022-11-24T18:30:08.489Z,65.02
2022-11-24T18:35:10.295Z,65.52
2022-11-24T18:40:12.317Z,65.29
2022-11-24T18:45:15.552Z,65.26
2022-11-24T18:50:17.580Z,64.29
2022-11-24T18:55:20.588Z,65.34
2022-11-24T19:00:24.095Z,65.92
2022-11-24T19:05:25.943Z,65.67
2022-11-24T19:10:27.822Z,65.29
2022-11-24T19:15:33.966Z,64.49
2022-11-24T19:20:35.985Z,65.00
2022-11-24T19:25:37.907Z,65.89
2022-11-24T19:30:41.781Z,65.24
2022-11-24T19:35:43.705Z,65.88
2022-11-24T19:40:45.523Z,65.61
2022-11-24T19:45:48.833Z,65.09
2022-11-24T19:50:58.370Z,65.77
2022-11-24T19:56:03.533Z,65.55
2022-11-24T20:01:07.508Z,66.38
2022-11-24T20:06:10.159Z,68.05
2022-11-24T20:11:12.849Z,66.94
2022-11-24T20:16:16.733Z,66.69
2022-11-24T20:21:19.371Z,66.77
2022-11-24T20:26:23.064Z,66.63
2022-11-24T20:31:27.247Z,66.44
2022-11-24T20:36:29.789Z,67.01
2022-11-24T20:41:32.530Z,67.99
2022-11-24T20:46:36.493Z,67.09
2022-11-24T20:51:39.734Z,66.54
2022-11-24T20:56:42.505Z,67.34
2022-11-24T21:01:46.150Z,68.57
2022-11-24T21:06:48.329Z,69.24
2022-11-24T21:11:50.392Z,68.62
2022-11-24T21:16:53.776Z,68.00
2022-11-24T21:21:55.657Z,69.06
2022-11-24T21:26:57.487Z,69.21
2022-11-24T21:32:00.698Z,70.68
2022-11-24T21:37:02.531Z,68.02
2022-11-24T21:42:04.890Z,68.72
2022-11-24T21:47:08.207Z,69.74
2022-11-24T21:52:10.033Z,68.70
2022-11-24T21:57:11.878Z,68.88
2022-11-24T22:02:15.009Z,67.34
2022-11-24T22:07:16.864Z,67.11
2022-11-24T22:12:18.708Z,68.70
2022-11-24T22:17:21.841Z,66.96
2022-11-24T22:22:23.784Z,68.22
2022-11-24T22:27:25.829Z,67.60
2022-11-24T22:32:29.007Z,68.82
2022-11-24T22:37:30.903Z,67.18
2022-11-24T22:42:32.762Z,67.50
2022-11-24T22:47:35.970Z,67.92
2022-11-24T22:52:38.681Z,67.53
2022-11-24T22:57:42.855Z,66.97
2022-11-24T23:02:48.110Z,66.95
2022-11-24T23:07:49.963Z,68.49
2022-11-24T23:12:51.774Z,65.18
2022-11-24T23:17:55.505Z,67.58
2022-11-24T23:22:57.357Z,68.50
2022-11-24T23:27:59.212Z,68.57
2022-11-24T23:33:02.373Z,69.59
2022-11-24T23:38:08.133Z,69.40
2022-11-24T23:43:10.096Z,70.27
2022-11-24T23:48:13.227Z,70.92
2022-11-24T23:53:15.096Z,68.55
2022-11-24T23:58:17.099Z,68.63
